sensor_id;sensor_type;location;lat;lon;timestamp;pressure;altitude;pressure_sealevel;temperature;humidity
21203;BME280;10759;51.982;9.232;2023-01-29T00:02:01;101697.66;;;-2.51;100.00
21203;BME280;10759;51.982;9.232;2023-01-29T00:04:32;101653.31;;;-2.67;100.00
21203;BME280;10759;51.982;9.232;2023-01-29T00:07:00;101697.94;;;-2.43;100.00
21203;BME280;10759;51.982;9.232;2023-01-29T00:09:28;101689.38;;;-2.38;100.00
21203;BME280;10759;51.982;9.232;2023-01-29T00:11:57;101616.00;;;-2.83;100.00
21203;BME280;10759;51.982;9.232;2023-01-29T00:14:25;101675.25;;;-2.41;100.00
21203;BME280;10759;51.982;9.232;2023-01-29T00:16:54;101653.22;;;-2.45;100.00
21203;BME280;10759;51.982;9.232;2023-01-29T00:19:22;101685.50;;;-2.23;100.00
21203;BME280;10759;51.982;9.232;2023-01-29T00:21:51;101582.78;;;-2.82;100.00
21203;BME280;10759;51.982;9.232;2023-01-29T00:24:19;101661.81;;;-2.49;100.00
21203;BME280;10759;51.982;9.232;2023-01-29T00:26:48;101662.41;;;-2.57;100.00
21203;BME280;10759;51.982;9.232;2023-01-29T00:29:16;101676.41;;;-2.57;100.00
21203;BME280;10759;51.982;9.232;2023-01-29T00:31:44;101668.19;;;-2.42;100.00
21203;BME280;10759;51.982;9.232;2023-01-29T00:34:14;101661.97;;;-2.46;100.00
21203;BME280;10759;51.982;9.232;2023-01-29T00:36:42;101657.53;;;-2.47;100.00
21203;BME280;10759;51.982;9.232;2023-01-29T00:39:12;101646.47;;;-2.62;100.00
21203;BME280;10759;51.982;9.232;2023-01-29T00:41:40;101656.38;;;-2.55;100.00
21203;BME280;10759;51.982;9.232;2023-01-29T00:44:26;101668.63;;;-2.54;100.00
21203;BME280;10759;51.982;9.232;2023-01-29T00:47:11;101643.97;;;-2.59;100.00
21203;BME280;10759;51.982;9.232;2023-01-29T00:49:53;101657.59;;;-2.45;100.00
21203;BME280;10759;51.982;9.232;2023-01-29T00:52:21;101460.19;;;-3.61;100.00
21203;BME280;10759;51.982;9.232;2023-01-29T00:54:55;101599.03;;;-2.68;100.00
21203;BME280;10759;51.982;9.232;2023-01-29T00:57:24;101672.53;;;-2.19;100.00
21203;BME280;10759;51.982;9.232;2023-01-29T00:59:53;101662.28;;;-2.11;100.00
21203;BME280;10759;51.982;9.232;2023-01-29T01:02:22;101589.69;;;-2.60;100.00
21203;BME280;10759;51.982;9.232;2023-01-29T01:05:08;101660.81;;;-2.28;100.00
21203;BME280;10759;51.982;9.232;2023-01-29T01:07:39;101667.72;;;-2.30;100.00
21203;BME280;10759;51.982;9.232;2023-01-29T01:10:12;101637.81;;;-2.35;100.00
21203;BME280;10759;51.982;9.232;2023-01-29T01:12:52;101663.88;;;-2.14;100.00
21203;BME280;10759;51.982;9.232;2023-01-29T01:15:21;101663.22;;;-2.09;100.00
21203;BME280;10759;51.982;9.232;2023-01-29T01:17:53;101665.53;;;-2.18;100.00
21203;BME280;10759;51.982;9.232;2023-01-29T01:20:21;101677.69;;;-1.95;100.00
21203;BME280;10759;51.982;9.232;2023-01-29T01:22:51;101540.59;;;-2.63;100.00
21203;BME280;10759;51.982;9.232;2023-01-29T01:25:22;101646.16;;;-1.95;100.00
21203;BME280;10759;51.982;9.232;2023-01-29T01:27:51;101657.94;;;-1.83;100.00
21203;BME280;10759;51.982;9.232;2023-01-29T01:30:19;101646.69;;;-1.79;100.00
21203;BME280;10759;51.982;9.232;2023-01-29T01:32:47;101626.09;;;-1.92;100.00
21203;BME280;10759;51.982;9.232;2023-01-29T01:35:16;101648.47;;;-1.78;100.00
21203;BME280;10759;51.982;9.232;2023-01-29T01:37:44;101649.50;;;-1.73;100.00
21203;BME280;10759;51.982;9.232;2023-01-29T01:40:14;101651.25;;;-1.74;100.00
21203;BME280;10759;51.982;9.232;2023-01-29T01:42:46;101633.00;;;-1.69;100.00
21203;BME280;10759;51.982;9.232;2023-01-29T01:45:19;101610.69;;;-1.82;100.00
21203;BME280;10759;51.982;9.232;2023-01-29T01:47:50;101492.03;;;-2.50;100.00
21203;BME280;10759;51.982;9.232;2023-01-29T01:50:22;101617.78;;;-1.79;100.00
21203;BME280;10759;51.982;9.232;2023-01-29T01:53:05;101624.91;;;-1.75;100.00
21203;BME280;10759;51.982;9.232;2023-01-29T01:55:37;101622.72;;;-1.61;100.00
21203;BME280;10759;51.982;9.232;2023-01-29T01:58:11;101631.59;;;-1.58;100.00
21203;BME280;10759;51.982;9.232;2023-01-29T02:00:40;101620.03;;;-1.63;100.00
21203;BME280;10759;51.982;9.232;2023-01-29T02:03:10;101614.59;;;-1.69;100.00
21203;BME280;10759;51.982;9.232;2023-01-29T02:05:57;101611.34;;;-1.60;100.00
21203;BME280;10759;51.982;9.232;2023-01-29T02:08:50;101623.03;;;-1.51;100.00
21203;BME280;10759;51.982;9.232;2023-01-29T02:11:37;101627.41;;;-1.51;100.00
21203;BME280;10759;51.982;9.232;2023-01-29T02:14:07;101546.22;;;-1.98;100.00
21203;BME280;10759;51.982;9.232;2023-01-29T02:16:36;101573.91;;;-1.82;100.00
21203;BME280;10759;51.982;9.232;2023-01-29T02:19:06;101623.63;;;-1.32;100.00
21203;BME280;10759;51.982;9.232;2023-01-29T02:22:19;101636.53;;;-1.40;100.00
21203;BME280;10759;51.982;9.232;2023-01-29T02:25:22;101629.34;;;-1.45;100.00
21203;BME280;10759;51.982;9.232;2023-01-29T02:28:17;101632.09;;;-1.42;100.00
21203;BME280;10759;51.982;9.232;2023-01-29T02:30:53;101583.09;;;-1.67;100.00
21203;BME280;10759;51.982;9.232;2023-01-29T02:33:32;101632.81;;;-1.46;100.00
21203;BME280;10759;51.982;9.232;2023-01-29T02:36:11;101637.59;;;-1.33;100.00
21203;BME280;10759;51.982;9.232;2023-01-29T02:38:46;101639.19;;;-1.38;100.00
21203;BME280;10759;51.982;9.232;2023-01-29T02:41:21;101630.19;;;-1.46;100.00
21203;BME280;10759;51.982;9.232;2023-01-29T02:43:57;101616.50;;;-1.65;100.00
21203;BME280;10759;51.982;9.232;2023-01-29T02:46:33;101631.78;;;-1.52;100.00
21203;BME280;10759;51.982;9.232;2023-01-29T02:49:07;101629.91;;;-1.56;100.00
21203;BME280;10759;51.982;9.232;2023-01-29T02:51:45;101637.34;;;-1.42;100.00
21203;BME280;10759;51.982;9.232;2023-01-29T02:54:20;101642.88;;;-1.33;100.00
21203;BME280;10759;51.982;9.232;2023-01-29T02:56:53;101641.00;;;-1.37;100.00
21203;BME280;10759;51.982;9.232;2023-01-29T02:59:27;101639.75;;;-1.50;100.00
21203;BME280;10759;51.982;9.232;2023-01-29T03:02:02;101623.16;;;-1.47;100.00
21203;BME280;10759;51.982;9.232;2023-01-29T03:04:38;101635.75;;;-1.37;100.00
21203;BME280;10759;51.982;9.232;2023-01-29T03:07:15;101637.22;;;-1.45;100.00
21203;BME280;10759;51.982;9.232;2023-01-29T03:10:11;101649.19;;;-1.55;100.00
21203;BME280;10759;51.982;9.232;2023-01-29T03:12:42;101643.91;;;-1.57;100.00
21203;BME280;10759;51.982;9.232;2023-01-29T03:15:17;101654.50;;;-1.54;100.00
21203;BME280;10759;51.982;9.232;2023-01-29T03:18:05;101542.22;;;-2.13;100.00
21203;BME280;10759;51.982;9.232;2023-01-29T03:20:37;101635.31;;;-1.51;100.00
21203;BME280;10759;51.982;9.232;2023-01-29T03:23:18;101634.06;;;-1.35;100.00
21203;BME280;10759;51.982;9.232;2023-01-29T03:25:56;101619.19;;;-1.33;100.00
21203;BME280;10759;51.982;9.232;2023-01-29T03:28:45;101624.44;;;-1.35;100.00
21203;BME280;10759;51.982;9.232;2023-01-29T03:31:34;101616.75;;;-1.27;100.00
21203;BME280;10759;51.982;9.232;2023-01-29T03:34:23;101627.56;;;-1.18;100.00
21203;BME280;10759;51.982;9.232;2023-01-29T03:37:03;101610.03;;;-1.17;100.00
21203;BME280;10759;51.982;9.232;2023-01-29T03:39:35;101600.97;;;-1.27;100.00
21203;BME280;10759;51.982;9.232;2023-01-29T03:42:11;101577.22;;;-1.59;100.00
21203;BME280;10759;51.982;9.232;2023-01-29T03:44:52;101617.22;;;-1.12;100.00
21203;BME280;10759;51.982;9.232;2023-01-29T03:47:40;101606.66;;;-1.13;100.00
21203;BME280;10759;51.982;9.232;2023-01-29T03:50:18;101539.91;;;-1.47;100.00
21203;BME280;10759;51.982;9.232;2023-01-29T03:52:50;101611.78;;;-1.18;100.00
21203;BME280;10759;51.982;9.232;2023-01-29T03:55:28;101617.59;;;-1.28;100.00
21203;BME280;10759;51.982;9.232;2023-01-29T03:58:05;101600.78;;;-1.33;100.00
21203;BME280;10759;51.982;9.232;2023-01-29T04:00:39;101583.31;;;-1.31;100.00
21203;BME280;10759;51.982;9.232;2023-01-29T04:03:14;101617.78;;;-1.22;100.00
21203;BME280;10759;51.982;9.232;2023-01-29T04:05:48;101604.91;;;-1.13;100.00
21203;BME280;10759;51.982;9.232;2023-01-29T04:08:26;101597.97;;;-1.09;100.00
21203;BME280;10759;51.982;9.232;2023-01-29T04:10:58;101597.03;;;-1.11;100.00
21203;BME280;10759;51.982;9.232;2023-01-29T04:13:30;101600.00;;;-1.00;100.00
21203;BME280;10759;51.982;9.232;2023-01-29T04:16:03;101543.25;;;-1.22;100.00
21203;BME280;10759;51.982;9.232;2023-01-29T04:19:05;101590.84;;;-0.83;100.00
21203;BME280;10759;51.982;9.232;2023-01-29T04:21:38;101587.22;;;-0.87;100.00
21203;BME280;10759;51.982;9.232;2023-01-29T04:24:07;101556.59;;;-1.15;100.00
21203;BME280;10759;51.982;9.232;2023-01-29T04:26:51;101563.69;;;-1.12;100.00
21203;BME280;10759;51.982;9.232;2023-01-29T04:29:32;101534.53;;;-1.20;100.00
21203;BME280;10759;51.982;9.232;2023-01-29T04:32:10;101551.81;;;-0.98;100.00
21203;BME280;10759;51.982;9.232;2023-01-29T04:34:58;101535.03;;;-1.01;100.00
21203;BME280;10759;51.982;9.232;2023-01-29T04:37:35;101541.31;;;-0.98;100.00
21203;BME280;10759;51.982;9.232;2023-01-29T04:40:14;101517.22;;;-1.12;100.00
21203;BME280;10759;51.982;9.232;2023-01-29T04:42:49;101517.41;;;-1.05;100.00
21203;BME280;10759;51.982;9.232;2023-01-29T04:45:27;101509.66;;;-0.99;100.00
21203;BME280;10759;51.982;9.232;2023-01-29T04:48:05;101393.59;;;-1.43;100.00
21203;BME280;10759;51.982;9.232;2023-01-29T04:50:45;101503.16;;;-0.80;100.00
21203;BME280;10759;51.982;9.232;2023-01-29T04:53:21;101496.06;;;-0.83;100.00
21203;BME280;10759;51.982;9.232;2023-01-29T04:55:56;101467.75;;;-0.93;100.00
21203;BME280;10759;51.982;9.232;2023-01-29T04:58:29;101492.88;;;-0.71;100.00
21203;BME280;10759;51.982;9.232;2023-01-29T05:01:01;101476.78;;;-0.83;100.00
21203;BME280;10759;51.982;9.232;2023-01-29T05:03:32;101469.81;;;-0.80;100.00
21203;BME280;10759;51.982;9.232;2023-01-29T05:06:05;101477.34;;;-0.60;100.00
21203;BME280;10759;51.982;9.232;2023-01-29T05:08:36;101461.78;;;-0.86;100.00
21203;BME280;10759;51.982;9.232;2023-01-29T05:11:06;101437.00;;;-0.94;100.00
21203;BME280;10759;51.982;9.232;2023-01-29T05:13:36;101444.25;;;-0.84;100.00
21203;BME280;10759;51.982;9.232;2023-01-29T05:16:08;101450.75;;;-0.71;100.00
21203;BME280;10759;51.982;9.232;2023-01-29T05:18:41;101491.16;;;-0.69;100.00
21203;BME280;10759;51.982;9.232;2023-01-29T05:21:11;101504.38;;;-0.68;100.00
21203;BME280;10759;51.982;9.232;2023-01-29T05:23:39;101467.50;;;-0.68;100.00
21203;BME280;10759;51.982;9.232;2023-01-29T05:26:23;101499.34;;;-0.58;100.00
21203;BME280;10759;51.982;9.232;2023-01-29T05:29:08;101366.09;;;-1.23;100.00
21203;BME280;10759;51.982;9.232;2023-01-29T05:31:37;101471.38;;;-0.53;100.00
21203;BME280;10759;51.982;9.232;2023-01-29T05:34:05;101500.53;;;-0.46;100.00
21203;BME280;10759;51.982;9.232;2023-01-29T05:36:35;101508.75;;;-0.33;100.00
21203;BME280;10759;51.982;9.232;2023-01-29T05:39:03;101503.47;;;-0.33;100.00
21203;BME280;10759;51.982;9.232;2023-01-29T05:41:31;101507.00;;;-0.33;100.00
21203;BME280;10759;51.982;9.232;2023-01-29T05:43:58;101475.88;;;-0.49;100.00
21203;BME280;10759;51.982;9.232;2023-01-29T05:46:26;101513.75;;;-0.44;100.00
21203;BME280;10759;51.982;9.232;2023-01-29T05:48:54;101504.97;;;-0.43;100.00
21203;BME280;10759;51.982;9.232;2023-01-29T05:51:22;101444.22;;;-0.51;100.00
21203;BME280;10759;51.982;9.232;2023-01-29T05:53:52;101483.31;;;-0.31;100.00
21203;BME280;10759;51.982;9.232;2023-01-29T05:56:20;101521.03;;;-0.34;100.00
21203;BME280;10759;51.982;9.232;2023-01-29T05:58:48;101526.06;;;-0.43;100.00
21203;BME280;10759;51.982;9.232;2023-01-29T06:01:18;101550.94;;;-0.32;100.00
21203;BME280;10759;51.982;9.232;2023-01-29T06:03:47;101544.81;;;-0.31;100.00
21203;BME280;10759;51.982;9.232;2023-01-29T06:06:15;101548.63;;;-0.18;100.00
21203;BME280;10759;51.982;9.232;2023-01-29T06:08:43;101424.53;;;-1.01;100.00
21203;BME280;10759;51.982;9.232;2023-01-29T06:11:14;101422.69;;;-1.05;100.00
21203;BME280;10759;51.982;9.232;2023-01-29T06:13:44;101542.16;;;-0.31;100.00
21203;BME280;10759;51.982;9.232;2023-01-29T06:16:12;101518.81;;;-0.15;100.00
21203;BME280;10759;51.982;9.232;2023-01-29T06:18:40;101458.53;;;-0.76;100.00
21203;BME280;10759;51.982;9.232;2023-01-29T06:21:11;101547.13;;;-0.43;100.00
21203;BME280;10759;51.982;9.232;2023-01-29T06:23:40;101500.34;;;-0.87;100.00
21203;BME280;10759;51.982;9.232;2023-01-29T06:26:10;101553.84;;;-0.54;100.00
21203;BME280;10759;51.982;9.232;2023-01-29T06:28:40;101527.75;;;-0.45;100.00
21203;BME280;10759;51.982;9.232;2023-01-29T06:31:09;101549.69;;;-0.46;100.00
21203;BME280;10759;51.982;9.232;2023-01-29T06:33:57;101554.91;;;-0.48;100.00
21203;BME280;10759;51.982;9.232;2023-01-29T06:36:25;101457.91;;;-1.00;100.00
21203;BME280;10759;51.982;9.232;2023-01-29T06:38:53;101546.25;;;-0.42;100.00
21203;BME280;10759;51.982;9.232;2023-01-29T06:41:21;101486.69;;;-0.72;100.00
21203;BME280;10759;51.982;9.232;2023-01-29T06:43:52;101547.38;;;-0.34;100.00
21203;BME280;10759;51.982;9.232;2023-01-29T06:46:20;101549.13;;;-0.33;100.00
21203;BME280;10759;51.982;9.232;2023-01-29T06:48:48;101551.13;;;-0.24;100.00
21203;BME280;10759;51.982;9.232;2023-01-29T06:51:16;101538.88;;;-0.22;100.00
21203;BME280;10759;51.982;9.232;2023-01-29T06:53:45;101545.75;;;-0.27;100.00
21203;BME280;10759;51.982;9.232;2023-01-29T06:56:13;101545.63;;;-0.33;100.00
21203;BME280;10759;51.982;9.232;2023-01-29T06:58:41;101541.41;;;-0.25;100.00
21203;BME280;10759;51.982;9.232;2023-01-29T07:01:11;101517.09;;;-0.51;100.00
21203;BME280;10759;51.982;9.232;2023-01-29T07:03:59;101536.44;;;-0.49;100.00
21203;BME280;10759;51.982;9.232;2023-01-29T07:06:27;101558.41;;;-0.49;100.00
21203;BME280;10759;51.982;9.232;2023-01-29T07:08:56;101563.09;;;-0.37;100.00
21203;BME280;10759;51.982;9.232;2023-01-29T07:11:24;101561.22;;;-0.41;100.00
21203;BME280;10759;51.982;9.232;2023-01-29T07:13:52;101506.00;;;-0.73;100.00
21203;BME280;10759;51.982;9.232;2023-01-29T07:16:21;101468.44;;;-1.00;100.00
21203;BME280;10759;51.982;9.232;2023-01-29T07:18:50;101542.19;;;-0.64;100.00
21203;BME280;10759;51.982;9.232;2023-01-29T07:21:18;101446.53;;;-1.31;100.00
21203;BME280;10759;51.982;9.232;2023-01-29T07:23:46;101572.41;;;-0.50;100.00
21203;BME280;10759;51.982;9.232;2023-01-29T07:26:14;101572.22;;;-0.57;100.00
21203;BME280;10759;51.982;9.232;2023-01-29T07:28:42;101571.44;;;-0.53;100.00
21203;BME280;10759;51.982;9.232;2023-01-29T07:31:12;101563.56;;;-0.52;100.00
21203;BME280;10759;51.982;9.232;2023-01-29T07:33:43;101554.88;;;-0.49;100.00
21203;BME280;10759;51.982;9.232;2023-01-29T07:36:12;101557.66;;;-0.43;100.00
21203;BME280;10759;51.982;9.232;2023-01-29T07:38:40;101553.03;;;-0.52;100.00
21203;BME280;10759;51.982;9.232;2023-01-29T07:41:10;101551.81;;;-0.66;100.00
21203;BME280;10759;51.982;9.232;2023-01-29T07:43:38;101557.78;;;-0.72;100.00
21203;BME280;10759;51.982;9.232;2023-01-29T07:46:06;101571.06;;;-0.69;100.00
21203;BME280;10759;51.982;9.232;2023-01-29T07:48:34;101579.09;;;-0.62;100.00
21203;BME280;10759;51.982;9.232;2023-01-29T07:51:04;101578.00;;;-0.71;100.00
21203;BME280;10759;51.982;9.232;2023-01-29T07:53:32;101566.94;;;-0.59;100.00
21203;BME280;10759;51.982;9.232;2023-01-29T07:56:01;101547.63;;;-0.58;100.00
21203;BME280;10759;51.982;9.232;2023-01-29T07:58:29;101530.50;;;-0.40;100.00
21203;BME280;10759;51.982;9.232;2023-01-29T08:01:04;101518.03;;;-0.48;100.00
21203;BME280;10759;51.982;9.232;2023-01-29T08:03:32;101519.28;;;-0.67;100.00
21203;BME280;10759;51.982;9.232;2023-01-29T08:06:00;101533.53;;;-0.60;100.00
21203;BME280;10759;51.982;9.232;2023-01-29T08:08:29;101526.75;;;-0.50;100.00
21203;BME280;10759;51.982;9.232;2023-01-29T08:10:59;101480.53;;;-0.72;100.00
21203;BME280;10759;51.982;9.232;2023-01-29T08:13:27;101517.69;;;-0.27;100.00
21203;BME280;10759;51.982;9.232;2023-01-29T08:15:58;101507.22;;;-0.24;100.00
21203;BME280;10759;51.982;9.232;2023-01-29T08:18:27;101452.19;;;-0.48;100.00
21203;BME280;10759;51.982;9.232;2023-01-29T08:20:58;101346.84;;;-1.22;100.00
21203;BME280;10759;51.982;9.232;2023-01-29T08:23:26;101448.88;;;-0.75;100.00
21203;BME280;10759;51.982;9.232;2023-01-29T08:25:56;101484.72;;;-0.46;100.00
21203;BME280;10759;51.982;9.232;2023-01-29T08:28:24;101486.78;;;-0.34;100.00
21203;BME280;10759;51.982;9.232;2023-01-29T08:30:52;101480.09;;;-0.54;100.00
21203;BME280;10759;51.982;9.232;2023-01-29T08:33:20;101490.69;;;-0.53;100.00
21203;BME280;10759;51.982;9.232;2023-01-29T08:36:04;101499.59;;;-0.49;100.00
21203;BME280;10759;51.982;9.232;2023-01-29T08:38:32;101475.31;;;-0.36;100.00
21203;BME280;10759;51.982;9.232;2023-01-29T08:41:01;101376.06;;;-0.75;100.00
21203;BME280;10759;51.982;9.232;2023-01-29T08:43:29;101494.47;;;-0.05;100.00
21203;BME280;10759;51.982;9.232;2023-01-29T08:45:57;101490.00;;;-0.09;100.00
21203;BME280;10759;51.982;9.232;2023-01-29T08:48:25;101484.97;;;0.02;100.00
21203;BME280;10759;51.982;9.232;2023-01-29T08:50:56;101498.06;;;-0.02;100.00
21203;BME280;10759;51.982;9.232;2023-01-29T08:53:24;101485.38;;;-0.19;100.00
21203;BME280;10759;51.982;9.232;2023-01-29T08:55:53;101488.09;;;-0.15;100.00
21203;BME280;10759;51.982;9.232;2023-01-29T08:58:22;101466.41;;;-0.41;100.00
21203;BME280;10759;51.982;9.232;2023-01-29T09:00:50;101455.56;;;-0.15;100.00
21203;BME280;10759;51.982;9.232;2023-01-29T09:03:18;101487.63;;;0.03;100.00
21203;BME280;10759;51.982;9.232;2023-01-29T09:05:46;101495.28;;;-0.08;100.00
21203;BME280;10759;51.982;9.232;2023-01-29T09:08:14;101497.38;;;0.07;100.00
21203;BME280;10759;51.982;9.232;2023-01-29T09:10:42;101474.53;;;0.06;100.00
21203;BME280;10759;51.982;9.232;2023-01-29T09:13:10;101485.00;;;0.03;100.00
21203;BME280;10759;51.982;9.232;2023-01-29T09:15:39;101489.47;;;0.07;100.00
21203;BME280;10759;51.982;9.232;2023-01-29T09:18:07;101435.22;;;-0.23;100.00
21203;BME280;10759;51.982;9.232;2023-01-29T09:20:35;101496.09;;;0.28;100.00
21203;BME280;10759;51.982;9.232;2023-01-29T09:23:04;101412.53;;;-0.16;100.00
21203;BME280;10759;51.982;9.232;2023-01-29T09:25:32;101465.19;;;0.20;100.00
21203;BME280;10759;51.982;9.232;2023-01-29T09:28:00;101484.94;;;0.41;100.00
21203;BME280;10759;51.982;9.232;2023-01-29T09:30:28;101485.97;;;0.49;100.00
21203;BME280;10759;51.982;9.232;2023-01-29T09:33:00;101488.97;;;0.64;100.00
21203;BME280;10759;51.982;9.232;2023-01-29T09:35:28;101478.94;;;0.48;100.00
21203;BME280;10759;51.982;9.232;2023-01-29T09:37:56;101484.16;;;0.47;100.00
21203;BME280;10759;51.982;9.232;2023-01-29T09:40:26;101489.53;;;0.51;100.00
21203;BME280;10759;51.982;9.232;2023-01-29T09:43:00;101469.41;;;0.55;100.00
21203;BME280;10759;51.982;9.232;2023-01-29T09:45:29;101477.28;;;0.53;100.00
21203;BME280;10759;51.982;9.232;2023-01-29T09:48:01;101475.63;;;0.58;100.00
21203;BME280;10759;51.982;9.232;2023-01-29T09:50:35;101463.44;;;0.65;100.00
21203;BME280;10759;51.982;9.232;2023-01-29T09:53:14;101460.16;;;0.77;100.00
21203;BME280;10759;51.982;9.232;2023-01-29T09:55:48;101414.09;;;0.59;100.00
21203;BME280;10759;51.982;9.232;2023-01-29T09:58:20;101458.56;;;0.85;100.00
21203;BME280;10759;51.982;9.232;2023-01-29T10:00:59;101450.50;;;0.77;100.00
21203;BME280;10759;51.982;9.232;2023-01-29T10:03:47;101465.69;;;0.89;100.00
21203;BME280;10759;51.982;9.232;2023-01-29T10:06:23;101460.41;;;0.89;100.00
21203;BME280;10759;51.982;9.232;2023-01-29T10:09:09;101459.88;;;1.09;100.00
21203;BME280;10759;51.982;9.232;2023-01-29T10:11:45;101441.53;;;1.16;100.00
21203;BME280;10759;51.982;9.232;2023-01-29T10:14:26;101445.00;;;1.14;100.00
21203;BME280;10759;51.982;9.232;2023-01-29T10:17:05;101423.66;;;1.01;100.00
21203;BME280;10759;51.982;9.232;2023-01-29T10:19:44;101446.03;;;1.22;99.31
21203;BME280;10759;51.982;9.232;2023-01-29T10:22:48;101429.75;;;0.97;100.00
21203;BME280;10759;51.982;9.232;2023-01-29T10:25:20;101424.38;;;0.93;100.00
21203;BME280;10759;51.982;9.232;2023-01-29T10:27:51;101424.03;;;1.23;100.00
21203;BME280;10759;51.982;9.232;2023-01-29T10:30:30;101380.47;;;0.98;100.00
21203;BME280;10759;51.982;9.232;2023-01-29T10:33:02;101414.72;;;0.93;100.00
21203;BME280;10759;51.982;9.232;2023-01-29T10:35:33;101422.09;;;1.13;100.00
21203;BME280;10759;51.982;9.232;2023-01-29T10:38:17;101349.56;;;0.91;100.00
21203;BME280;10759;51.982;9.232;2023-01-29T10:40:54;101405.69;;;1.31;100.00
21203;BME280;10759;51.982;9.232;2023-01-29T10:43:29;101410.81;;;1.23;100.00
21203;BME280;10759;51.982;9.232;2023-01-29T10:46:08;101399.66;;;1.39;100.00
21203;BME280;10759;51.982;9.232;2023-01-29T10:48:48;101298.28;;;0.76;98.21
21203;BME280;10759;51.982;9.232;2023-01-29T10:51:37;101389.69;;;1.21;98.57
21203;BME280;10759;51.982;9.232;2023-01-29T10:54:13;101388.72;;;1.16;100.00
21203;BME280;10759;51.982;9.232;2023-01-29T10:56:58;101384.28;;;1.14;100.00
21203;BME280;10759;51.982;9.232;2023-01-29T10:59:38;101395.69;;;1.13;100.00
21203;BME280;10759;51.982;9.232;2023-01-29T11:02:14;101395.63;;;1.10;99.39
21203;BME280;10759;51.982;9.232;2023-01-29T11:04:43;101390.34;;;1.10;99.11
21203;BME280;10759;51.982;9.232;2023-01-29T11:07:15;101374.22;;;0.91;100.00
21203;BME280;10759;51.982;9.232;2023-01-29T11:09:49;101381.63;;;1.14;99.51
21203;BME280;10759;51.982;9.232;2023-01-29T11:12:21;101286.09;;;0.83;99.05
21203;BME280;10759;51.982;9.232;2023-01-29T11:14:54;101367.97;;;1.42;99.96
21203;BME280;10759;51.982;9.232;2023-01-29T11:17:25;101361.13;;;1.54;99.55
21203;BME280;10759;51.982;9.232;2023-01-29T11:19:54;101367.22;;;1.49;98.78
21203;BME280;10759;51.982;9.232;2023-01-29T11:22:25;101358.53;;;1.58;100.00
21203;BME280;10759;51.982;9.232;2023-01-29T11:25:14;101332.72;;;1.40;98.98
21203;BME280;10759;51.982;9.232;2023-01-29T11:27:45;101342.53;;;1.46;98.82
21203;BME280;10759;51.982;9.232;2023-01-29T11:30:17;101336.34;;;1.45;97.99
21203;BME280;10759;51.982;9.232;2023-01-29T11:32:58;101283.22;;;1.24;98.39
21203;BME280;10759;51.982;9.232;2023-01-29T11:35:27;101331.19;;;1.55;98.73
21203;BME280;10759;51.982;9.232;2023-01-29T11:38:06;101327.78;;;1.65;99.33
21203;BME280;10759;51.982;9.232;2023-01-29T11:40:37;101313.72;;;1.66;99.65
21203;BME280;10759;51.982;9.232;2023-01-29T11:43:12;101316.63;;;1.86;98.87
21203;BME280;10759;51.982;9.232;2023-01-29T11:45:40;101222.84;;;1.53;96.95
21203;BME280;10759;51.982;9.232;2023-01-29T11:48:13;101249.44;;;1.65;96.25
21203;BME280;10759;51.982;9.232;2023-01-29T11:50:42;101298.19;;;1.90;97.80
21203;BME280;10759;51.982;9.232;2023-01-29T11:53:26;101266.34;;;1.80;96.85
21203;BME280;10759;51.982;9.232;2023-01-29T11:55:58;101298.25;;;1.95;97.67
21203;BME280;10759;51.982;9.232;2023-01-29T11:58:28;101295.69;;;2.04;94.65
21203;BME280;10759;51.982;9.232;2023-01-29T12:00:56;101298.44;;;2.12;93.79
21203;BME280;10759;51.982;9.232;2023-01-29T12:03:32;101277.91;;;1.91;95.07
21203;BME280;10759;51.982;9.232;2023-01-29T12:06:04;101290.44;;;2.07;95.86
21203;BME280;10759;51.982;9.232;2023-01-29T12:08:36;101281.72;;;2.14;95.95
21203;BME280;10759;51.982;9.232;2023-01-29T12:11:10;101283.22;;;1.94;97.96
21203;BME280;10759;51.982;9.232;2023-01-29T12:13:40;101261.22;;;1.97;96.39
21203;BME280;10759;51.982;9.232;2023-01-29T12:16:18;101250.50;;;1.84;96.91
21203;BME280;10759;51.982;9.232;2023-01-29T12:18:52;101269.16;;;1.95;97.43
21203;BME280;10759;51.982;9.232;2023-01-29T12:21:27;101271.81;;;1.97;97.34
21203;BME280;10759;51.982;9.232;2023-01-29T12:24:03;101143.06;;;1.09;96.71
21203;BME280;10759;51.982;9.232;2023-01-29T12:26:41;101247.94;;;1.87;96.89
21203;BME280;10759;51.982;9.232;2023-01-29T12:29:30;101251.81;;;2.22;94.38
21203;BME280;10759;51.982;9.232;2023-01-29T12:32:06;101227.88;;;2.08;94.21
21203;BME280;10759;51.982;9.232;2023-01-29T12:34:44;101237.66;;;2.18;95.22
21203;BME280;10759;51.982;9.232;2023-01-29T12:37:19;101232.41;;;2.23;95.09
21203;BME280;10759;51.982;9.232;2023-01-29T12:39:51;101199.66;;;2.07;94.46
21203;BME280;10759;51.982;9.232;2023-01-29T12:42:20;101213.94;;;2.24;93.12
21203;BME280;10759;51.982;9.232;2023-01-29T12:44:52;101212.16;;;2.22;94.13
21203;BME280;10759;51.982;9.232;2023-01-29T12:47:26;101172.19;;;1.92;95.06
21203;BME280;10759;51.982;9.232;2023-01-29T12:49:57;101159.78;;;1.87;95.45
21203;BME280;10759;51.982;9.232;2023-01-29T12:52:36;101195.22;;;2.06;95.71
21203;BME280;10759;51.982;9.232;2023-01-29T12:55:12;101183.69;;;1.96;96.39
21203;BME280;10759;51.982;9.232;2023-01-29T12:57:46;101164.16;;;1.83;97.83
21203;BME280;10759;51.982;9.232;2023-01-29T13:00:20;101152.81;;;1.92;97.37
21203;BME280;10759;51.982;9.232;2023-01-29T13:02:53;101165.16;;;1.96;97.29
21203;BME280;10759;51.982;9.232;2023-01-29T13:05:24;101173.28;;;2.14;96.56
21203;BME280;10759;51.982;9.232;2023-01-29T13:07:57;101132.63;;;2.03;94.64
21203;BME280;10759;51.982;9.232;2023-01-29T13:10:33;101168.03;;;2.19;95.36
21203;BME280;10759;51.982;9.232;2023-01-29T13:13:06;101170.63;;;2.13;96.07
21203;BME280;10759;51.982;9.232;2023-01-29T13:15:42;101169.78;;;2.19;95.83
21203;BME280;10759;51.982;9.232;2023-01-29T13:18:35;101168.03;;;2.19;95.82